createdAt,value
2022-07-30T00:01:14.631Z,37.79
2022-07-30T00:03:41.413Z,37.36
2022-07-30T00:06:07.946Z,37.56
2022-07-30T00:08:34.757Z,37.97
2022-07-30T00:11:01.261Z,37.80
2022-07-30T00:13:27.772Z,37.97
2022-07-30T00:15:54.279Z,37.90
2022-07-30T00:18:21.809Z,38.22
2022-07-30T00:20:49.384Z,38.45
2022-07-30T00:23:17.214Z,38.07
2022-07-30T00:25:44.334Z,38.36
2022-07-30T00:28:10.936Z,38.52
2022-07-30T00:30:38.745Z,38.66
2022-07-30T00:33:05.418Z,39.17
2022-07-30T00:35:34.878Z,38.63
2022-07-30T00:38:01.381Z,38.97
2022-07-30T00:40:28.054Z,39.23
2022-07-30T00:42:54.694Z,39.31
2022-07-30T00:45:21.234Z,38.87
2022-07-30T00:47:47.837Z,39.45
2022-07-30T00:50:15.422Z,39.02
2022-07-30T00:52:42.746Z,39.15
2022-07-30T00:55:11.442Z,39.35
2022-07-30T00:57:39.259Z,39.51
2022-07-30T01:00:09.118Z,39.76
2022-07-30T01:02:35.738Z,40.01
2022-07-30T01:07:43.802Z,39.91
2022-07-30T01:10:12.545Z,40.08
2022-07-30T01:12:40.104Z,40.18
2022-07-30T01:15:09.543Z,40.12
2022-07-30T01:17:36.965Z,40.49
2022-07-30T01:20:10.418Z,40.28
2022-07-30T01:22:42.860Z,40.19
2022-07-30T01:25:16.093Z,40.24
2022-07-30T01:27:56.684Z,40.17
2022-07-30T01:30:27.035Z,40.75
2022-07-30T01:32:56.339Z,40.74
2022-07-30T01:35:25.851Z,40.73
2022-07-30T01:37:54.330Z,40.68
2022-07-30T01:40:21.122Z,40.45
2022-07-30T01:42:50.187Z,40.86
2022-07-30T01:45:17.803Z,40.86
2022-07-30T01:47:45.215Z,41.09
2022-07-30T01:50:14.217Z,41.39
2022-07-30T01:52:44.561Z,41.48
2022-07-30T01:55:17.102Z,41.87
2022-07-30T01:57:46.986Z,41.74
2022-07-30T02:00:14.191Z,41.68
2022-07-30T02:02:41.283Z,41.93
2022-07-30T02:05:09.327Z,41.81
2022-07-30T02:10:16.281Z,41.48
2022-07-30T02:12:48.264Z,41.67
2022-07-30T02:15:27.452Z,41.70
2022-07-30T02:17:56.586Z,41.83
2022-07-30T02:20:28.387Z,41.82
2022-07-30T02:23:00.034Z,41.91
2022-07-30T02:25:27.411Z,41.75
2022-07-30T02:27:58.318Z,41.96
2022-07-30T02:30:27.797Z,42.21
2022-07-30T02:32:59.961Z,42.55
2022-07-30T02:35:29.533Z,42.41
2022-07-30T02:37:57.815Z,41.87
2022-07-30T02:40:25.383Z,42.44
2022-07-30T02:42:53.097Z,42.33
2022-07-30T02:45:22.470Z,42.90
2022-07-30T02:47:58.650Z,42.81
2022-07-30T02:50:27.450Z,42.54
2022-07-30T02:52:56.095Z,42.70
2022-07-30T02:55:23.945Z,43.22
2022-07-30T02:57:52.574Z,43.16
2022-07-30T03:00:20.510Z,43.13
2022-07-30T03:02:47.644Z,42.73
2022-07-30T03:05:15.944Z,42.98
2022-07-30T03:07:44.329Z,43.13
2022-07-30T03:10:11.994Z,42.98
2022-07-30T03:12:40.634Z,43.36
2022-07-30T03:15:07.781Z,42.71
2022-07-30T03:17:40.296Z,42.86
2022-07-30T03:20:13.155Z,43.16
2022-07-30T03:22:48.246Z,42.86
2022-07-30T03:25:19.146Z,43.18
2022-07-30T03:27:47.534Z,43.36
2022-07-30T03:30:14.288Z,42.85
2022-07-30T03:32:41.495Z,42.59
2022-07-30T03:35:16.944Z,42.53
2022-07-30T03:37:44.886Z,42.34
2022-07-30T03:40:11.948Z,42.37
2022-07-30T03:42:38.955Z,41.96
2022-07-30T03:45:07.586Z,42.00
2022-07-30T03:47:38.241Z,42.24
2022-07-30T03:50:05.846Z,42.35
2022-07-30T03:52:38.811Z,42.27
2022-07-30T03:55:09.839Z,41.88
2022-07-30T03:57:37.165Z,41.72
2022-07-30T04:00:12.653Z,41.99
2022-07-30T04:02:44.695Z,42.21
2022-07-30T04:05:15.258Z,42.27
2022-07-30T04:07:45.114Z,42.64
2022-07-30T04:10:12.508Z,42.34
2022-07-30T04:12:39.023Z,42.57
2022-07-30T04:16:38.198Z,42.54
2022-07-30T04:17:58.022Z,42.16
2022-07-30T04:20:27.619Z,41.91
2022-07-30T04:22:56.085Z,42.39
2022-07-30T04:25:24.690Z,42.44
2022-07-30T04:28:01.928Z,42.67
2022-07-30T04:30:31.015Z,42.77
2022-07-30T04:32:57.553Z,42.42
2022-07-30T04:35:51.079Z,42.76
2022-07-30T04:38:19.572Z,42.61
2022-07-30T04:40:46.168Z,42.93
2022-07-30T04:43:13.037Z,42.71
2022-07-30T04:45:40.826Z,42.57
2022-07-30T04:48:07.989Z,43.00
2022-07-30T04:50:38.379Z,42.39
2022-07-30T04:53:05.108Z,42.86
2022-07-30T04:55:34.366Z,42.67
2022-07-30T04:58:02.248Z,42.87
2022-07-30T05:00:32.405Z,42.62
2022-07-30T05:03:01.437Z,42.28
2022-07-30T05:05:32.334Z,43.10
2022-07-30T05:08:01.297Z,43.33
2022-07-30T05:10:28.560Z,43.44
2022-07-30T05:12:55.264Z,43.00
2022-07-30T05:15:21.736Z,43.06
2022-07-30T05:17:48.566Z,43.49
2022-07-30T05:20:15.078Z,43.83
2022-07-30T05:22:42.738Z,43.45
2022-07-30T05:25:16.133Z,43.75
2022-07-30T05:27:42.841Z,43.44
2022-07-30T05:30:09.941Z,43.42
2022-07-30T05:32:38.835Z,43.35
2022-07-30T05:35:05.880Z,42.79
2022-07-30T05:37:33.575Z,42.97
2022-07-30T05:40:02.764Z,42.53
2022-07-30T05:42:30.268Z,41.99
2022-07-30T05:44:56.975Z,41.71
2022-07-30T05:47:23.544Z,41.91
2022-07-30T05:49:50.209Z,41.95
2022-07-30T05:52:16.771Z,42.04
2022-07-30T05:54:43.475Z,42.27
2022-07-30T05:57:10.273Z,42.57
2022-07-30T05:59:36.875Z,42.52
2022-07-30T06:02:04.236Z,42.09
2022-07-30T06:04:30.852Z,41.96
2022-07-30T06:06:57.534Z,42.05
2022-07-30T06:09:36.674Z,42.28
2022-07-30T06:12:04.885Z,41.93
2022-07-30T06:14:32.181Z,42.23
2022-07-30T06:16:59.144Z,41.72
2022-07-30T06:19:26.394Z,41.56
2022-07-30T06:22:01.728Z,41.32
2022-07-30T06:24:32.952Z,41.60
2022-07-30T06:26:59.693Z,41.65
2022-07-30T06:29:26.493Z,41.84
2022-07-30T06:31:53.035Z,41.59
2022-07-30T06:34:19.549Z,41.66
2022-07-30T06:36:46.031Z,41.08
2022-07-30T06:39:12.757Z,41.41
2022-07-30T06:41:39.227Z,41.32
2022-07-30T06:44:05.730Z,41.38
2022-07-30T06:46:32.275Z,40.98
2022-07-30T06:48:59.537Z,40.95
2022-07-30T06:51:26.504Z,40.52
2022-07-30T06:53:53.235Z,40.40
2022-07-30T06:56:19.757Z,41.05
2022-07-30T06:58:46.441Z,41.23
2022-07-30T07:01:13.043Z,40.64
2022-07-30T07:03:40.745Z,40.28
2022-07-30T07:06:07.775Z,40.85
2022-07-30T07:08:38.674Z,40.54
2022-07-30T07:11:05.204Z,40.52
2022-07-30T07:13:31.716Z,39.63
2022-07-30T07:15:58.370Z,39.06
2022-07-30T07:18:24.893Z,39.73
2022-07-30T07:20:51.412Z,39.70
2022-07-30T07:23:19.855Z,39.65
2022-07-30T07:25:47.294Z,40.11
2022-07-30T07:28:13.868Z,40.09
2022-07-30T07:30:44.086Z,40.25
2022-07-30T07:33:10.805Z,39.54
2022-07-30T07:35:49.207Z,39.10
2022-07-30T07:38:18.046Z,39.69
2022-07-30T07:40:45.172Z,39.54
2022-07-30T07:43:11.682Z,39.00
2022-07-30T07:45:39.220Z,38.69
2022-07-30T07:48:05.845Z,38.76
2022-07-30T07:50:32.416Z,39.84
2022-07-30T07:52:58.983Z,39.19
2022-07-30T07:55:25.960Z,38.89
2022-07-30T07:57:52.723Z,38.78
2022-07-30T08:00:21.279Z,38.91
2022-07-30T08:02:48.426Z,38.35
2022-07-30T08:05:15.975Z,38.55
2022-07-30T08:07:43.258Z,38.18
2022-07-30T08:10:11.056Z,37.38
2022-07-30T08:12:37.576Z,38.00
2022-07-30T08:15:04.689Z,37.09
2022-07-30T08:17:31.226Z,37.31
2022-07-30T08:20:01.184Z,36.87
2022-07-30T08:22:27.857Z,36.01
2022-07-30T08:24:54.457Z,36.60
2022-07-30T08:27:21.004Z,35.66
2022-07-30T08:29:47.497Z,36.54
2022-07-30T08:32:14.222Z,37.06
2022-07-30T08:34:41.338Z,36.82
2022-07-30T08:37:08.509Z,36.65
2022-07-30T08:39:35.060Z,36.14
2022-07-30T08:42:04.290Z,37.21
2022-07-30T08:44:33.009Z,35.56
2022-07-30T08:47:01.966Z,36.63
2022-07-30T08:49:28.968Z,35.49
2022-07-30T08:51:56.413Z,36.11
2022-07-30T08:54:23.173Z,35.75
2022-07-30T08:56:50.414Z,35.83
2022-07-30T08:59:18.008Z,35.53
2022-07-30T09:01:44.556Z,35.22
2022-07-30T09:04:11.016Z,35.65
2022-07-30T09:06:37.637Z,36.66
2022-07-30T09:09:04.125Z,36.71
2022-07-30T09:11:33.595Z,36.13
2022-07-30T09:14:08.762Z,36.59
2022-07-30T09:16:36.739Z,36.81
2022-07-30T09:19:14.768Z,37.00
2022-07-30T09:21:41.702Z,36.86
2022-07-30T09:24:12.509Z,36.70
2022-07-30T09:27:01.198Z,37.58
2022-07-30T09:29:29.982Z,35.68
2022-07-30T09:31:57.979Z,35.21
2022-07-30T09:34:30.210Z,37.13
2022-07-30T09:36:58.333Z,37.21
2022-07-30T09:39:59.021Z,36.41
2022-07-30T09:42:28.723Z,36.06
2022-07-30T09:45:15.701Z,35.63
2022-07-30T09:47:50.454Z,36.15
2022-07-30T09:53:12.269Z,34.76
2022-07-30T09:55:41.866Z,34.90
2022-07-30T09:58:10.273Z,33.97
2022-07-30T10:00:42.355Z,34.89
2022-07-30T10:03:21.682Z,33.96
2022-07-30T10:06:02.981Z,34.30
2022-07-30T10:08:46.190Z,32.96
2022-07-30T10:11:23.815Z,31.70
2022-07-30T10:13:54.988Z,31.86
2022-07-30T10:16:21.743Z,31.99
2022-07-30T10:18:51.256Z,32.10
2022-07-30T10:21:19.771Z,32.26
2022-07-30T10:23:46.360Z,32.12
2022-07-30T10:26:18.051Z,32.10
2022-07-30T10:28:46.167Z,33.06
2022-07-30T10:31:46.675Z,33.49
2022-07-30T10:34:02.507Z,34.31
2022-07-30T10:36:30.386Z,33.87
2022-07-30T10:38:57.214Z,33.54
2022-07-30T10:41:43.145Z,33.68
2022-07-30T10:44:26.335Z,32.55
2022-07-30T10:47:07.877Z,31.92
2022-07-30T10:49:40.612Z,32.07
2022-07-30T10:52:07.587Z,32.56
2022-07-30T10:54:36.573Z,32.47
2022-07-30T10:57:14.943Z,31.94
2022-07-30T10:59:49.661Z,32.82
2022-07-30T11:02:18.027Z,32.34
2022-07-30T11:04:46.770Z,32.78
2022-07-30T11:07:23.572Z,33.63
2022-07-30T11:10:04.272Z,33.42
2022-07-30T11:12:45.315Z,32.40
2022-07-30T11:15:18.204Z,33.13
2022-07-30T11:17:59.006Z,32.38
2022-07-30T11:20:26.240Z,32.41
2022-07-30T11:22:53.918Z,32.69
2022-07-30T11:25:50.558Z,32.07
2022-07-30T11:28:39.806Z,31.56
2022-07-30T11:31:30.730Z,30.99
2022-07-30T11:34:18.265Z,29.90
2022-07-30T11:37:18.056Z,30.05
2022-07-30T11:39:54.390Z,29.81
2022-07-30T11:42:35.883Z,28.97
2022-07-30T11:45:18.036Z,30.80
2022-07-30T11:47:52.066Z,29.09
2022-07-30T11:50:39.725Z,30.53
2022-07-30T11:53:15.042Z,29.01
2022-07-30T11:55:44.799Z,29.47
2022-07-30T11:58:26.637Z,31.45
2022-07-30T12:00:54.693Z,30.29
2022-07-30T12:03:23.788Z,30.02
2022-07-30T12:05:52.571Z,30.19
2022-07-30T12:08:33.466Z,30.71
2022-07-30T12:11:02.812Z,31.12
2022-07-30T12:13:44.406Z,30.25
2022-07-30T12:16:14.741Z,31.02
2022-07-30T12:18:41.524Z,29.43
2022-07-30T12:21:12.787Z,28.34
2022-07-30T12:23:41.970Z,28.57
2022-07-30T12:26:08.743Z,29.53
2022-07-30T12:28:36.154Z,30.18
2022-07-30T12:31:04.357Z,30.93
2022-07-30T12:33:31.811Z,30.39
2022-07-30T12:36:00.328Z,31.42
2022-07-30T12:38:28.787Z,29.81
2022-07-30T12:41:01.937Z,29.03
2022-07-30T12:43:55.023Z,29.59
2022-07-30T12:46:26.723Z,29.88
2022-07-30T12:49:19.107Z,29.07
2022-07-30T12:51:58.416Z,29.53
2022-07-30T12:54:27.463Z,30.13
2022-07-30T12:57:03.233Z,29.31
2022-07-30T12:59:32.300Z,28.58
2022-07-30T13:02:03.494Z,30.82
2022-07-30T13:04:31.585Z,29.71
2022-07-30T13:07:10.458Z,29.73
2022-07-30T13:09:38.082Z,29.21
2022-07-30T13:12:04.880Z,30.16
2022-07-30T13:14:32.323Z,31.38
2022-07-30T13:16:58.965Z,30.09
2022-07-30T13:19:26.617Z,30.67
2022-07-30T13:21:53.104Z,31.36
2022-07-30T13:24:21.011Z,29.93
2022-07-30T13:26:50.582Z,30.23
2022-07-30T13:29:17.498Z,30.86
2022-07-30T13:31:44.266Z,30.77
2022-07-30T13:34:13.580Z,30.50
2022-07-30T13:36:40.128Z,29.52
2022-07-30T13:39:06.669Z,30.59
2022-07-30T13:41:35.980Z,31.15
2022-07-30T13:44:02.734Z,30.71
2022-07-30T13:46:29.346Z,30.88
2022-07-30T13:48:55.839Z,30.99
2022-07-30T13:51:22.333Z,30.85
2022-07-30T13:53:48.917Z,30.49
2022-07-30T13:56:15.603Z,30.20
2022-07-30T13:58:42.757Z,30.32
2022-07-30T14:01:17.452Z,29.49
2022-07-30T14:03:50.615Z,30.28
2022-07-30T14:06:19.033Z,29.90
2022-07-30T14:08:45.622Z,30.22
2022-07-30T14:11:12.506Z,29.79
2022-07-30T14:13:39.013Z,28.68
2022-07-30T14:16:22.564Z,29.92
2022-07-30T14:18:53.009Z,29.87
2022-07-30T14:21:19.533Z,30.41
2022-07-30T14:23:46.066Z,30.84
2022-07-30T14:26:12.558Z,30.40
2022-07-30T14:28:39.010Z,29.36
2022-07-30T14:31:05.548Z,29.92
2022-07-30T14:33:32.094Z,30.10
2022-07-30T14:36:00.142Z,30.12
2022-07-30T14:38:26.583Z,30.99
2022-07-30T14:40:53.165Z,30.01
2022-07-30T14:43:19.749Z,30.67
2022-07-30T14:45:50.474Z,30.62
2022-07-30T14:48:17.620Z,31.83
2022-07-30T14:51:10.585Z,31.05
2022-07-30T14:53:31.156Z,31.08
2022-07-30T14:55:57.741Z,30.56
2022-07-30T14:58:24.429Z,30.82
2022-07-30T15:00:51.453Z,30.71
2022-07-30T15:03:18.280Z,30.60
2022-07-30T15:05:51.787Z,30.73
2022-07-30T15:08:18.952Z,29.69
2022-07-30T15:10:45.440Z,28.93
2022-07-30T15:13:12.679Z,30.40
2022-07-30T15:15:39.860Z,31.08
2022-07-30T15:18:06.774Z,30.82
2022-07-30T15:20:33.368Z,29.88
2022-07-30T15:22:59.850Z,29.69
2022-07-30T15:25:26.724Z,29.67
2022-07-30T15:27:53.191Z,30.45
2022-07-30T15:30:20.889Z,30.04
2022-07-30T15:32:47.493Z,29.40
2022-07-30T15:35:14.369Z,30.40
2022-07-30T15:37:41.206Z,30.05
2022-07-30T15:40:08.282Z,30.47
2022-07-30T15:42:34.756Z,30.03
2022-07-30T15:45:17.105Z,30.26
2022-07-30T15:47:44.851Z,29.66
2022-07-30T15:50:11.538Z,30.05
2022-07-30T15:52:38.626Z,29.48
2022-07-30T15:55:07.269Z,29.40
2022-07-30T15:57:33.840Z,29.85
2022-07-30T16:00:00.502Z,28.88
2022-07-30T16:02:27.052Z,29.30
2022-07-30T16:04:53.929Z,29.77
2022-07-30T16:07:20.511Z,30.46
2022-07-30T16:09:47.017Z,29.79
2022-07-30T16:12:13.490Z,29.20
2022-07-30T16:14:39.993Z,29.61
2022-07-30T16:17:13.142Z,29.00
2022-07-30T16:19:41.062Z,29.79
2022-07-30T16:22:12.205Z,29.48
2022-07-30T16:24:41.904Z,30.21
2022-07-30T16:27:10.167Z,29.84
2022-07-30T16:29:36.763Z,30.45
2022-07-30T16:32:03.891Z,30.65
2022-07-30T16:34:31.075Z,30.40
2022-07-30T16:36:57.521Z,30.21
2022-07-30T16:39:24.045Z,30.02
2022-07-30T16:41:50.533Z,29.24
2022-07-30T16:44:17.132Z,28.97
2022-07-30T16:46:43.647Z,29.22
2022-07-30T16:49:10.264Z,30.41
2022-07-30T16:51:36.922Z,29.35
2022-07-30T16:54:03.938Z,29.15
2022-07-30T16:56:30.417Z,29.18
2022-07-30T16:58:56.886Z,29.08
2022-07-30T17:01:23.543Z,28.81
2022-07-30T17:03:50.129Z,29.02
2022-07-30T17:06:16.672Z,28.91
2022-07-30T17:08:43.179Z,28.64
2022-07-30T17:11:11.700Z,28.39
2022-07-30T17:13:56.566Z,28.60
2022-07-30T17:16:23.234Z,28.15
2022-07-30T17:18:49.732Z,28.47
2022-07-30T17:21:16.446Z,28.39
2022-07-30T17:23:43.008Z,28.39
2022-07-30T17:26:10.756Z,28.33
2022-07-30T17:28:37.864Z,28.25
2022-07-30T17:31:05.198Z,28.77
2022-07-30T17:33:31.928Z,28.92
2022-07-30T17:35:58.463Z,29.06
2022-07-30T17:38:25.014Z,29.17
2022-07-30T17:40:51.564Z,29.42
2022-07-30T17:43:18.048Z,29.31
2022-07-30T17:45:44.615Z,29.11
2022-07-30T17:48:11.118Z,28.81
2022-07-30T17:50:37.866Z,29.00
2022-07-30T17:53:05.871Z,28.81
2022-07-30T17:55:35.097Z,28.82
2022-07-30T17:58:03.776Z,29.03
2022-07-30T18:00:30.411Z,29.04
2022-07-30T18:02:56.855Z,29.24
2022-07-30T18:05:23.386Z,28.87
2022-07-30T18:07:49.931Z,29.00
2022-07-30T18:10:16.530Z,29.59
2022-07-30T18:12:45.428Z,29.44
2022-07-30T18:15:15.872Z,29.57
2022-07-30T18:17:42.371Z,28.92
2022-07-30T18:20:09.539Z,29.26
2022-07-30T18:22:36.067Z,28.94
2022-07-30T18:25:02.836Z,29.18
2022-07-30T18:27:34.240Z,29.09
2022-07-30T18:30:00.724Z,29.54
2022-07-30T18:32:27.311Z,29.13
2022-07-30T18:34:54.204Z,29.37
2022-07-30T18:37:20.667Z,29.16
2022-07-30T18:39:47.130Z,28.90
2022-07-30T18:42:13.682Z,29.10
2022-07-30T18:44:40.142Z,28.59
2022-07-30T18:47:06.630Z,29.26
2022-07-30T18:49:37.755Z,28.70
2022-07-30T18:52:06.211Z,29.10
2022-07-30T18:54:33.324Z,29.39
2022-07-30T18:56:59.821Z,29.56
2022-07-30T18:59:26.400Z,29.17
2022-07-30T19:01:53.092Z,29.03
2022-07-30T19:04:19.728Z,29.24
2022-07-30T19:06:46.221Z,28.94
2022-07-30T19:09:17.280Z,29.77
2022-07-30T19:11:44.426Z,30.42
2022-07-30T19:14:12.895Z,30.27
2022-07-30T19:16:39.581Z,30.57
2022-07-30T19:19:06.119Z,31.57
2022-07-30T19:21:32.616Z,31.99
2022-07-30T19:23:59.166Z,32.13
2022-07-30T19:26:25.784Z,32.28
2022-07-30T19:28:52.359Z,32.47
2022-07-30T19:31:19.435Z,32.66
2022-07-30T19:33:45.952Z,32.66
2022-07-30T19:36:15.097Z,33.90
2022-07-30T19:38:44.151Z,34.90
2022-07-30T19:41:12.209Z,35.29
2022-07-30T19:43:40.731Z,35.31
2022-07-30T19:46:07.378Z,36.11
2022-07-30T19:48:37.221Z,35.64
2022-07-30T19:51:04.680Z,35.92
2022-07-30T19:53:34.272Z,36.22
2022-07-30T19:56:03.277Z,36.52
2022-07-30T19:58:30.418Z,37.05
2022-07-30T20:00:56.963Z,37.80
2022-07-30T20:03:26.202Z,37.35
2022-07-30T20:05:59.662Z,36.99
2022-07-30T20:08:28.134Z,37.37
2022-07-30T20:10:57.366Z,39.31
2022-07-30T20:13:25.361Z,38.19
2022-07-30T20:16:12.195Z,38.61
2022-07-30T20:18:39.618Z,37.86
2022-07-30T20:21:09.220Z,38.08
2022-07-30T20:23:40.588Z,38.91
2022-07-30T20:26:12.506Z,38.47
2022-07-30T20:28:41.017Z,38.49
2022-07-30T20:31:08.416Z,38.38
2022-07-30T20:36:22.365Z,38.77
2022-07-30T20:38:49.308Z,38.61
2022-07-30T20:41:16.149Z,38.76
2022-07-30T20:43:46.058Z,38.78
2022-07-30T20:46:20.535Z,39.34
2022-07-30T20:48:50.150Z,39.43
2022-07-30T20:51:16.866Z,39.58
2022-07-30T20:53:45.439Z,39.43
2022-07-30T20:56:13.439Z,39.55
2022-07-30T20:58:41.404Z,39.63
2022-07-30T21:01:17.355Z,39.42
2022-07-30T21:03:47.518Z,40.40
2022-07-30T21:06:14.783Z,41.20
2022-07-30T21:08:41.280Z,41.60
2022-07-30T21:11:07.792Z,40.68
2022-07-30T21:13:36.448Z,40.99
2022-07-30T21:16:03.597Z,41.56
2022-07-30T21:18:31.183Z,41.40
2022-07-30T21:20:58.078Z,41.47
2022-07-30T21:23:27.127Z,41.35
2022-07-30T21:26:01.617Z,41.49
2022-07-30T21:28:35.909Z,41.57
2022-07-30T21:31:04.087Z,41.61
2022-07-30T21:33:35.799Z,41.88
2022-07-30T21:36:02.319Z,41.93
2022-07-30T21:41:15.946Z,42.14
2022-07-30T21:43:46.015Z,42.29
2022-07-30T21:46:15.800Z,42.36
2022-07-30T21:48:56.181Z,42.34
2022-07-30T21:51:25.072Z,42.77
2022-07-30T21:53:53.311Z,42.66
2022-07-30T21:56:20.255Z,42.54
2022-07-30T21:58:48.521Z,42.94
2022-07-30T22:01:18.638Z,42.80
2022-07-30T22:04:01.461Z,43.10
2022-07-30T22:06:40.488Z,43.15
2022-07-30T22:09:19.439Z,43.46
2022-07-30T22:12:01.174Z,43.73
2022-07-30T22:14:29.105Z,43.38
2022-07-30T22:16:55.948Z,43.97
2022-07-30T22:19:22.847Z,44.09
2022-07-30T22:21:50.942Z,44.41
2022-07-30T22:24:28.662Z,45.35
2022-07-30T22:26:56.817Z,46.55
2022-07-30T22:29:24.088Z,45.97
2022-07-30T22:31:50.714Z,46.03
2022-07-30T22:34:17.253Z,45.57
2022-07-30T22:36:45.932Z,45.59
2022-07-30T22:39:12.411Z,45.00
2022-07-30T22:41:39.292Z,46.19
2022-07-30T22:44:06.683Z,46.19
2022-07-30T22:46:38.742Z,46.85
2022-07-30T22:49:23.207Z,46.50
2022-07-30T22:52:01.982Z,46.65
2022-07-30T22:54:35.922Z,47.26
2022-07-30T22:57:03.935Z,47.34
2022-07-30T23:00:00.256Z,47.64
2022-07-30T23:02:17.984Z,47.55
2022-07-30T23:04:44.537Z,47.41
2022-07-30T23:07:13.931Z,47.80
2022-07-30T23:09:51.657Z,48.49
2022-07-30T23:12:18.143Z,38.60
2022-07-30T23:12:20.240Z,48.14
2022-07-30T23:12:27.579Z,41.99
2022-07-30T23:14:47.639Z,48.84
2022-07-30T23:17:14.582Z,48.42
2022-07-30T23:19:41.119Z,48.49
2022-07-30T23:22:07.652Z,48.50
2022-07-30T23:24:34.151Z,48.86
2022-07-30T23:27:00.977Z,49.02
2022-07-30T23:29:28.627Z,49.63
2022-07-30T23:31:55.612Z,49.81
2022-07-30T23:34:22.169Z,49.59
2022-07-30T23:36:48.752Z,49.68
2022-07-30T23:39:15.232Z,49.83
2022-07-30T23:41:41.761Z,50.20
2022-07-30T23:44:08.393Z,50.19
2022-07-30T23:46:37.030Z,50.49
2022-07-30T23:49:04.903Z,50.34
2022-07-30T23:51:33.365Z,50.23
2022-07-30T23:54:00.511Z,50.34
2022-07-30T23:56:27.054Z,50.67
2022-07-30T23:58:53.543Z,50.73
